createdAt,value
2018-06-23T00:01:15.364Z,7.80
2018-06-23T00:03:44.753Z,7.70
2018-06-23T00:06:14.158Z,7.80
2018-06-23T00:08:43.588Z,7.80
2018-06-23T00:11:13.159Z,7.80
2018-06-23T00:13:42.493Z,7.70
2018-06-23T00:16:11.801Z,7.70
2018-06-23T00:18:41.209Z,7.60
2018-06-23T00:21:10.679Z,7.50
2018-06-23T00:23:40.061Z,7.50
2018-06-23T00:26:14.574Z,7.40
2018-06-23T00:28:43.909Z,7.40
2018-06-23T00:31:13.336Z,7.30
2018-06-23T00:33:42.793Z,7.30
2018-06-23T00:36:12.244Z,7.20
2018-06-23T00:38:41.787Z,7.20
2018-06-23T00:41:11.057Z,7.10
2018-06-23T00:43:40.537Z,7.10
2018-06-23T00:46:09.909Z,7.20
2018-06-23T00:48:39.259Z,7.30
2018-06-23T00:51:08.711Z,7.30
2018-06-23T00:53:38.009Z,7.50
2018-06-23T00:56:07.441Z,7.50
2018-06-23T00:59:48.004Z,7.60
2018-06-23T01:02:17.191Z,7.60
2018-06-23T01:04:46.413Z,7.70
2018-06-23T01:07:15.700Z,7.70
2018-06-23T01:09:44.923Z,7.70
2018-06-23T01:12:14.226Z,7.80
2018-06-23T01:14:43.501Z,7.80
2018-06-23T01:17:12.832Z,7.80
2018-06-23T01:19:42.326Z,7.90
2018-06-23T01:22:11.686Z,7.90
2018-06-23T01:24:41.150Z,7.80
2018-06-23T01:27:11.400Z,7.80
2018-06-23T01:29:40.860Z,7.80
2018-06-23T01:32:10.386Z,7.90
2018-06-23T01:34:39.910Z,7.90
2018-06-23T01:37:09.412Z,7.80
2018-06-23T01:39:38.948Z,7.80
2018-06-23T01:42:08.331Z,7.80
2018-06-23T01:44:37.784Z,7.70
2018-06-23T01:47:07.058Z,7.70
2018-06-23T01:49:36.365Z,7.70
2018-06-23T01:52:05.715Z,7.60
2018-06-23T01:54:35.065Z,7.50
2018-06-23T01:57:04.414Z,7.50
2018-06-23T01:59:33.738Z,7.40
2018-06-23T02:02:03.267Z,7.30
2018-06-23T02:04:32.657Z,7.30
2018-06-23T02:07:02.012Z,7.20
2018-06-23T02:09:31.601Z,7.10
2018-06-23T02:12:00.903Z,7.00
2018-06-23T02:14:35.530Z,7.00
2018-06-23T02:17:10.202Z,7.10
2018-06-23T02:19:45.067Z,7.10
2018-06-23T02:22:19.600Z,7.00
2018-06-23T02:24:54.261Z,7.00
2018-06-23T02:27:28.917Z,7.00
2018-06-23T02:30:03.777Z,6.90
2018-06-23T02:32:38.362Z,6.90
2018-06-23T02:35:08.573Z,6.80
2018-06-23T02:37:39.133Z,6.80
2018-06-23T02:40:08.895Z,6.80
2018-06-23T02:42:38.218Z,6.80
2018-06-23T02:45:07.817Z,6.70
2018-06-23T02:47:37.361Z,6.70
2018-06-23T02:50:06.858Z,6.70
2018-06-23T02:52:36.232Z,6.70
2018-06-23T02:55:05.676Z,6.70
2018-06-23T02:57:35.012Z,6.70
2018-06-23T03:00:04.554Z,6.70
2018-06-23T03:02:33.923Z,6.70
2018-06-23T03:05:03.257Z,6.70
2018-06-23T03:07:33.022Z,6.60
2018-06-23T03:10:02.421Z,6.60
2018-06-23T03:12:31.839Z,6.60
2018-06-23T03:15:01.215Z,6.60
2018-06-23T03:17:30.487Z,6.70
2018-06-23T03:19:59.873Z,6.60
2018-06-23T03:22:29.208Z,6.70
2018-06-23T03:24:58.558Z,6.60
2018-06-23T03:27:28.103Z,6.60
2018-06-23T03:29:57.574Z,6.60
2018-06-23T03:32:26.932Z,6.60
2018-06-23T03:34:56.206Z,6.70
2018-06-23T03:37:25.592Z,6.70
2018-06-23T03:39:54.994Z,6.80
2018-06-23T03:42:24.296Z,6.80
2018-06-23T03:44:53.568Z,6.80
2018-06-23T03:47:22.873Z,6.90
2018-06-23T03:49:52.159Z,7.00
2018-06-23T03:52:21.512Z,7.00
2018-06-23T03:54:50.781Z,7.10
2018-06-23T03:57:20.054Z,7.10
2018-06-23T03:59:49.320Z,7.20
2018-06-23T04:02:18.864Z,7.30
2018-06-23T04:04:48.142Z,7.40
2018-06-23T04:07:17.434Z,7.40
2018-06-23T04:09:46.691Z,7.50
2018-06-23T04:12:16.049Z,7.60
2018-06-23T04:14:45.406Z,7.70
2018-06-23T04:17:14.711Z,7.70
2018-06-23T04:19:44.127Z,7.80
2018-06-23T04:22:13.375Z,7.90
2018-06-23T04:24:42.684Z,7.90
2018-06-23T04:27:12.069Z,8.00
2018-06-23T04:29:41.537Z,8.10
2018-06-23T04:32:10.872Z,8.10
2018-06-23T04:34:40.110Z,8.20
2018-06-23T04:37:09.427Z,8.30
2018-06-23T04:39:38.772Z,8.40
2018-06-23T04:42:08.086Z,8.50
2018-06-23T04:44:37.335Z,8.60
2018-06-23T04:47:06.716Z,8.70
2018-06-23T04:49:36.162Z,8.90
2018-06-23T04:52:05.789Z,9.00
2018-06-23T04:54:35.225Z,9.20
2018-06-23T04:57:04.783Z,9.40
2018-06-23T04:59:34.247Z,9.60
2018-06-23T05:02:03.590Z,9.80
2018-06-23T05:04:33.034Z,10.00
2018-06-23T05:07:02.456Z,10.20
2018-06-23T05:09:32.102Z,10.30
2018-06-23T05:12:01.692Z,10.50
2018-06-23T05:14:31.438Z,10.60
2018-06-23T05:17:00.939Z,10.80
2018-06-23T05:19:30.380Z,10.90
2018-06-23T05:21:59.776Z,11.10
2018-06-23T05:24:29.320Z,11.30
2018-06-23T05:26:58.829Z,11.40
2018-06-23T05:29:28.369Z,11.60
2018-06-23T05:31:58.684Z,11.70
2018-06-23T05:34:28.617Z,11.90
2018-06-23T05:36:58.110Z,12.00
2018-06-23T05:39:27.900Z,12.10
2018-06-23T05:41:57.293Z,12.20
2018-06-23T05:44:26.757Z,12.30
2018-06-23T05:46:56.377Z,12.50
2018-06-23T05:49:25.959Z,12.60
2018-06-23T05:51:55.491Z,12.70
2018-06-23T05:54:25.080Z,12.80
2018-06-23T05:56:54.600Z,12.90
2018-06-23T05:59:24.167Z,13.10
2018-06-23T06:01:53.751Z,13.20
2018-06-23T06:04:23.218Z,13.40
2018-06-23T06:06:52.637Z,13.50
2018-06-23T06:09:22.243Z,13.70
2018-06-23T06:11:51.704Z,13.80
2018-06-23T06:14:21.436Z,14.00
2018-06-23T06:17:27.539Z,14.10
2018-06-23T06:19:59.185Z,14.30
2018-06-23T06:22:29.791Z,14.40
2018-06-23T06:24:59.271Z,14.50
2018-06-23T06:27:28.864Z,14.70
2018-06-23T06:29:58.764Z,14.80
2018-06-23T06:32:28.722Z,14.80
2018-06-23T06:34:58.548Z,14.90
2018-06-23T06:37:27.912Z,15.10
2018-06-23T06:39:57.308Z,15.30
2018-06-23T06:42:26.836Z,15.70
2018-06-23T06:44:56.208Z,15.80
2018-06-23T06:47:25.659Z,16.10
2018-06-23T06:49:54.994Z,16.10
2018-06-23T06:52:24.376Z,16.30
2018-06-23T06:54:54.002Z,16.50
2018-06-23T06:57:23.611Z,16.60
2018-06-23T06:59:53.061Z,16.50
2018-06-23T07:02:22.530Z,16.10
2018-06-23T07:04:52.055Z,16.00
2018-06-23T07:07:21.790Z,15.90
2018-06-23T07:09:51.226Z,16.10
2018-06-23T07:12:20.706Z,16.30
2018-06-23T07:14:50.046Z,16.20
2018-06-23T07:17:19.402Z,16.40
2018-06-23T07:19:48.772Z,16.70
2018-06-23T07:22:18.126Z,16.70
2018-06-23T07:24:47.497Z,17.00
2018-06-23T07:27:16.868Z,16.80
2018-06-23T07:29:46.349Z,16.90
2018-06-23T07:32:15.754Z,17.30
2018-06-23T07:34:45.158Z,17.50
2018-06-23T07:37:14.470Z,17.70
2018-06-23T07:39:44.006Z,17.90
2018-06-23T07:42:14.507Z,17.90
2018-06-23T07:52:24.040Z,18.00
2018-06-23T07:55:26.306Z,18.30
2018-06-23T07:58:27.049Z,18.60
2018-06-23T08:01:42.687Z,18.50
2018-06-23T08:12:04.286Z,18.10
2018-06-23T08:15:02.286Z,17.90
2018-06-23T08:18:01.402Z,18.00
2018-06-23T08:24:09.003Z,18.20
2018-06-23T08:30:20.099Z,18.80
2018-06-23T08:33:23.882Z,18.70
2018-06-23T08:35:53.490Z,18.50
2018-06-23T08:38:22.879Z,18.90
2018-06-23T08:40:52.330Z,19.10
2018-06-23T08:43:21.724Z,18.90
2018-06-23T08:45:51.099Z,18.90
2018-06-23T08:48:20.548Z,19.00
2018-06-23T08:50:50.000Z,19.40
2018-06-23T08:53:19.581Z,19.50
2018-06-23T08:55:48.974Z,20.00
2018-06-23T08:58:18.386Z,20.30
2018-06-23T09:00:48.085Z,20.40
2018-06-23T09:03:17.505Z,19.70
2018-06-23T09:05:46.843Z,19.50
2018-06-23T09:08:16.065Z,19.30
2018-06-23T09:10:45.556Z,19.40
2018-06-23T09:13:15.012Z,19.80
2018-06-23T09:15:44.464Z,19.60
2018-06-23T09:18:13.994Z,19.60
2018-06-23T09:20:43.349Z,19.80
2018-06-23T09:23:12.642Z,20.20
2018-06-23T09:25:41.979Z,20.20
2018-06-23T09:28:11.389Z,19.90
2018-06-23T09:30:40.977Z,20.00
2018-06-23T09:33:10.277Z,20.40
2018-06-23T09:35:39.666Z,20.30
2018-06-23T09:38:09.092Z,20.10
2018-06-23T09:40:38.605Z,20.30
2018-06-23T09:43:08.049Z,20.40
2018-06-23T09:45:37.444Z,20.30
2018-06-23T09:48:06.876Z,20.50
2018-06-23T09:50:38.259Z,20.60
2018-06-23T09:53:08.861Z,20.70
2018-06-23T09:55:38.389Z,20.70
2018-06-23T09:58:07.869Z,20.60
2018-06-23T10:00:37.362Z,21.10
2018-06-23T10:03:06.891Z,21.20
2018-06-23T10:05:36.351Z,21.50
2018-06-23T10:08:05.732Z,21.90
2018-06-23T10:10:35.087Z,21.90
2018-06-23T10:13:04.661Z,21.60
2018-06-23T10:15:34.035Z,21.50
2018-06-23T10:18:03.641Z,21.40
2018-06-23T10:20:32.967Z,21.60
2018-06-23T10:23:02.306Z,21.70
2018-06-23T10:25:31.590Z,21.90
2018-06-23T10:28:01.010Z,21.70
2018-06-23T10:30:30.433Z,22.20
2018-06-23T10:32:59.794Z,21.70
2018-06-23T10:35:29.214Z,21.70
2018-06-23T10:37:58.521Z,21.90
2018-06-23T10:40:27.891Z,21.80
2018-06-23T10:42:57.320Z,21.70
2018-06-23T10:45:26.650Z,21.60
2018-06-23T10:47:55.968Z,21.70
2018-06-23T10:50:25.285Z,22.00
2018-06-23T10:52:54.702Z,22.20
2018-06-23T10:55:24.208Z,22.00
2018-06-23T10:57:53.795Z,22.10
2018-06-23T11:00:23.316Z,22.70
2018-06-23T11:02:52.717Z,22.80
2018-06-23T11:05:22.162Z,23.30
2018-06-23T11:10:51.068Z,22.80
2018-06-23T11:13:20.420Z,22.30
2018-06-23T11:15:49.764Z,22.20
2018-06-23T11:18:19.223Z,22.50
2018-06-23T11:20:48.545Z,22.50
2018-06-23T11:23:17.907Z,22.90
2018-06-23T11:25:47.273Z,22.60
2018-06-23T11:28:16.610Z,22.80
2018-06-23T11:30:46.059Z,23.30
2018-06-23T11:33:15.523Z,23.80
2018-06-23T11:35:44.951Z,24.00
2018-06-23T11:38:14.347Z,23.40
2018-06-23T11:40:43.853Z,23.30
2018-06-23T11:43:14.802Z,23.10
2018-06-23T11:45:47.695Z,23.80
2018-06-23T11:48:19.422Z,23.50
2018-06-23T11:50:50.660Z,23.90
2018-06-23T11:53:20.215Z,24.30
2018-06-23T11:55:49.643Z,24.40
2018-06-23T11:58:19.074Z,24.50
2018-06-23T12:00:48.418Z,24.80
2018-06-23T12:03:17.935Z,24.50
2018-06-23T12:05:47.264Z,24.30
2018-06-23T12:08:17.219Z,23.80
2018-06-23T12:10:46.750Z,23.30
2018-06-23T12:13:16.206Z,23.60
2018-06-23T12:15:48.396Z,23.90
2018-06-23T12:18:18.012Z,23.60
2018-06-23T12:20:47.547Z,23.70
2018-06-23T12:23:16.880Z,24.10
2018-06-23T12:25:46.491Z,24.80
2018-06-23T12:28:15.976Z,24.70
2018-06-23T12:30:45.408Z,25.10
2018-06-23T12:33:15.626Z,24.90
2018-06-23T12:35:47.677Z,23.60
2018-06-23T12:38:17.097Z,23.20
2018-06-23T12:40:46.444Z,23.10
2018-06-23T12:43:15.893Z,23.30
2018-06-23T12:45:45.237Z,24.10
2018-06-23T12:48:14.750Z,24.40
2018-06-23T12:50:44.224Z,24.20
2018-06-23T12:53:13.729Z,24.20
2018-06-23T12:55:43.133Z,24.10
2018-06-23T12:58:12.669Z,24.10
2018-06-23T13:00:42.021Z,24.40
2018-06-23T13:03:11.824Z,24.20
2018-06-23T13:05:41.136Z,23.60
2018-06-23T13:08:10.583Z,23.80
2018-06-23T13:10:40.103Z,23.80
2018-06-23T13:13:09.498Z,23.50
2018-06-23T13:15:38.851Z,24.00
2018-06-23T13:18:08.981Z,24.30
2018-06-23T13:20:39.021Z,24.10
2018-06-23T13:23:08.345Z,24.70
2018-06-23T13:25:37.687Z,24.00
2018-06-23T13:28:07.192Z,24.10
2018-06-23T13:30:36.591Z,24.20
2018-06-23T13:33:06.296Z,23.90
2018-06-23T13:35:35.617Z,23.60
2018-06-23T13:38:05.282Z,23.20
2018-06-23T13:40:34.747Z,23.20
2018-06-23T13:43:04.411Z,24.00
2018-06-23T13:45:34.143Z,23.80
2018-06-23T13:48:03.666Z,23.50
2018-06-23T13:50:36.758Z,23.30
2018-06-23T13:53:06.091Z,23.50
2018-06-23T13:55:35.703Z,23.50
2018-06-23T13:58:05.179Z,23.50
2018-06-23T14:00:34.557Z,24.20
2018-06-23T14:03:03.978Z,24.50
2018-06-23T14:05:33.613Z,23.80
2018-06-23T14:08:03.151Z,22.90
2018-06-23T14:10:32.482Z,23.20
2018-06-23T14:13:02.065Z,22.80
2018-06-23T14:15:31.542Z,22.80
2018-06-23T14:18:00.948Z,22.50
2018-06-23T14:20:30.399Z,22.40
2018-06-23T14:23:00.224Z,22.80
2018-06-23T14:25:29.666Z,22.60
2018-06-23T14:27:59.084Z,22.50
2018-06-23T14:30:29.138Z,22.20
2018-06-23T14:32:58.463Z,21.90
2018-06-23T14:35:27.827Z,21.40
2018-06-23T14:37:57.196Z,21.60
2018-06-23T14:40:26.662Z,22.00
2018-06-23T14:42:56.083Z,22.50
2018-06-23T14:45:25.685Z,22.30
2018-06-23T14:47:55.037Z,21.90
2018-06-23T14:50:24.878Z,22.30
2018-06-23T14:52:54.344Z,23.00
2018-06-23T14:55:23.720Z,23.00
2018-06-23T14:57:53.194Z,22.80
2018-06-23T15:00:22.782Z,22.40
2018-06-23T15:02:52.168Z,21.80
2018-06-23T15:05:21.610Z,22.10
2018-06-23T15:07:51.889Z,22.40
2018-06-23T15:10:32.180Z,22.50
2018-06-23T15:13:12.468Z,22.30
2018-06-23T15:15:42.000Z,22.60
2018-06-23T15:18:12.272Z,22.60
2018-06-23T15:20:42.064Z,23.00
2018-06-23T15:23:11.626Z,23.40
2018-06-23T15:25:41.128Z,22.60
2018-06-23T15:28:10.558Z,22.90
2018-06-23T15:30:40.165Z,23.10
2018-06-23T15:33:09.575Z,22.40
2018-06-23T15:35:40.122Z,22.50
2018-06-23T15:38:09.787Z,23.00
2018-06-23T15:40:39.137Z,23.80
2018-06-23T15:43:08.734Z,23.90
2018-06-23T15:45:38.253Z,23.90
2018-06-23T15:48:07.836Z,23.90
2018-06-23T15:50:37.330Z,23.20
2018-06-23T15:53:06.913Z,23.10
2018-06-23T15:55:36.427Z,23.10
2018-06-23T15:58:05.816Z,22.40
2018-06-23T16:00:35.236Z,22.00
2018-06-23T16:03:04.735Z,21.90
2018-06-23T16:05:34.141Z,22.40
2018-06-23T16:08:03.605Z,22.90
2018-06-23T16:10:33.023Z,23.10
2018-06-23T16:13:02.425Z,22.90
2018-06-23T16:15:31.774Z,22.80
2018-06-23T16:18:01.273Z,22.80
2018-06-23T16:20:30.639Z,22.80
2018-06-23T16:23:00.074Z,23.00
2018-06-23T16:25:29.436Z,23.30
2018-06-23T16:27:58.976Z,23.40
2018-06-23T16:30:28.255Z,23.00
2018-06-23T16:32:57.704Z,22.60
2018-06-23T16:35:27.385Z,22.50
2018-06-23T16:37:56.481Z,22.00
2018-06-23T16:40:25.981Z,22.00
2018-06-23T16:42:55.452Z,21.70
2018-06-23T16:45:25.014Z,21.60
2018-06-23T16:47:54.403Z,21.20
2018-06-23T16:50:24.100Z,20.60
2018-06-23T16:52:53.520Z,20.40
2018-06-23T16:55:23.014Z,20.60
2018-06-23T16:57:52.448Z,20.00
2018-06-23T17:00:21.826Z,19.80
2018-06-23T17:02:51.180Z,19.80
2018-06-23T17:05:20.730Z,20.40
2018-06-23T17:07:50.278Z,20.40
2018-06-23T17:10:19.663Z,20.60
2018-06-23T17:12:49.061Z,20.50
2018-06-23T17:15:18.521Z,20.10
2018-06-23T17:17:47.961Z,19.80
2018-06-23T17:20:17.480Z,19.50
2018-06-23T17:22:46.824Z,19.40
2018-06-23T17:25:16.161Z,19.40
2018-06-23T17:27:45.523Z,19.40
2018-06-23T17:30:14.985Z,19.30
2018-06-23T17:32:44.337Z,19.20
2018-06-23T17:35:13.808Z,19.30
2018-06-23T17:37:43.293Z,19.10
2018-06-23T17:40:12.618Z,19.00
2018-06-23T17:42:41.998Z,19.00
2018-06-23T17:45:11.272Z,19.10
2018-06-23T17:47:46.721Z,18.90
2018-06-23T17:50:16.180Z,18.90
2018-06-23T17:52:45.557Z,18.80
2018-06-23T17:55:14.860Z,18.70
2018-06-23T17:57:44.396Z,18.70
2018-06-23T18:00:13.746Z,18.70
2018-06-23T18:02:43.187Z,18.70
2018-06-23T18:05:12.484Z,18.80
2018-06-23T18:07:41.906Z,18.80
2018-06-23T18:10:11.196Z,18.90
2018-06-23T18:12:40.779Z,18.80
2018-06-23T18:16:13.005Z,18.60
2018-06-23T18:18:42.355Z,18.50
2018-06-23T18:21:15.629Z,18.30
2018-06-23T18:23:49.733Z,18.20
2018-06-23T18:26:19.462Z,18.20
2018-06-23T18:28:48.764Z,18.30
2018-06-23T18:31:18.108Z,18.10
2018-06-23T18:33:47.852Z,18.10
2018-06-23T18:36:17.288Z,17.90
2018-06-23T18:38:46.652Z,17.70
2018-06-23T18:41:16.060Z,17.70
2018-06-23T18:43:45.494Z,17.50
2018-06-23T18:46:15.044Z,17.40
2018-06-23T18:48:44.507Z,17.40
2018-06-23T18:51:15.465Z,17.20
2018-06-23T18:53:44.889Z,17.20
2018-06-23T18:56:14.700Z,17.20
2018-06-23T18:58:44.345Z,17.00
2018-06-23T19:01:13.759Z,16.90
2018-06-23T19:03:43.164Z,16.80
2018-06-23T19:06:12.514Z,16.70
2018-06-23T19:08:41.947Z,16.70
2018-06-23T19:11:12.280Z,16.60
2018-06-23T19:13:41.805Z,16.60
2018-06-23T19:16:11.155Z,16.50
2018-06-23T19:18:40.676Z,16.40
2018-06-23T19:21:10.321Z,16.40
2018-06-23T19:23:39.855Z,16.30
2018-06-23T19:26:09.371Z,16.30
2018-06-23T19:28:39.039Z,16.20
2018-06-23T19:31:08.712Z,16.20
2018-06-23T19:33:38.477Z,16.10
2018-06-23T19:36:19.151Z,16.10
2018-06-23T19:38:48.771Z,16.10
2018-06-23T19:41:26.280Z,16.00
2018-06-23T19:43:55.903Z,16.00
2018-06-23T19:46:25.454Z,15.90
2018-06-23T19:48:55.114Z,15.80
2018-06-23T19:51:24.614Z,15.80
2018-06-23T19:53:54.161Z,15.80
2018-06-23T19:56:23.832Z,15.70
2018-06-23T19:58:53.504Z,15.70
2018-06-23T20:01:22.971Z,15.60
2018-06-23T20:03:52.537Z,15.50
2018-06-23T20:06:22.145Z,15.40
2018-06-23T20:08:51.724Z,15.30
2018-06-23T20:11:21.255Z,15.30
2018-06-23T20:13:50.768Z,15.30
2018-06-23T20:16:20.305Z,15.20
2018-06-23T20:18:49.858Z,15.10
2018-06-23T20:21:19.311Z,15.00
2018-06-23T20:23:48.629Z,15.00
2018-06-23T20:26:18.128Z,14.90
2018-06-23T20:28:47.552Z,14.90
2018-06-23T20:31:23.386Z,14.80
2018-06-23T20:33:52.948Z,14.80
2018-06-23T20:36:22.296Z,14.80
2018-06-23T20:38:51.759Z,14.70
2018-06-23T20:41:21.324Z,14.70
2018-06-23T20:43:50.674Z,14.60
2018-06-23T20:46:20.158Z,14.60
2018-06-23T20:48:49.549Z,14.50
2018-06-23T20:51:18.903Z,14.50
2018-06-23T20:53:48.423Z,14.50
2018-06-23T20:56:17.750Z,14.50
2018-06-23T20:58:47.128Z,14.40
2018-06-23T21:01:18.006Z,14.30
2018-06-23T21:03:47.433Z,14.30
2018-06-23T21:06:18.692Z,14.20
2018-06-23T21:08:48.299Z,14.20
2018-06-23T21:11:18.864Z,14.20
2018-06-23T21:13:48.744Z,14.10
2018-06-23T21:16:18.167Z,14.00
2018-06-23T21:18:47.531Z,14.00
2018-06-23T21:21:18.109Z,14.00
2018-06-23T21:23:47.655Z,13.90
2018-06-23T21:26:17.041Z,13.90
2018-06-23T21:28:46.490Z,13.80
2018-06-23T21:31:15.863Z,13.80
2018-06-23T21:33:45.529Z,13.80
2018-06-23T21:36:14.839Z,13.80
2018-06-23T21:38:44.137Z,13.70
2018-06-23T21:41:13.969Z,13.60
2018-06-23T21:43:43.406Z,13.60
2018-06-23T21:46:12.735Z,13.60
2018-06-23T21:48:42.173Z,13.60
2018-06-23T21:51:11.577Z,13.50
2018-06-23T21:53:41.071Z,13.60
2018-06-23T21:56:10.529Z,13.60
2018-06-23T21:58:40.021Z,13.60
2018-06-23T22:01:09.624Z,13.50
2018-06-23T22:03:39.120Z,13.60
2018-06-23T22:06:08.513Z,13.60
2018-06-23T22:08:37.865Z,13.60
2018-06-23T22:11:07.367Z,13.50
2018-06-23T22:13:36.771Z,13.50
2018-06-23T22:16:06.073Z,13.50
2018-06-23T22:18:35.604Z,13.50
2018-06-23T22:21:04.979Z,13.60
2018-06-23T22:23:34.459Z,13.60
2018-06-23T22:26:03.926Z,13.50
2018-06-23T22:28:33.364Z,13.50
2018-06-23T22:31:02.646Z,13.50
2018-06-23T22:33:32.092Z,13.40
2018-06-23T22:36:01.564Z,13.40
2018-06-23T22:38:30.988Z,13.30
2018-06-23T22:41:00.346Z,13.30
2018-06-23T22:43:29.735Z,13.20
2018-06-23T22:45:59.199Z,13.20
2018-06-23T22:48:28.724Z,13.20
2018-06-23T22:50:58.271Z,13.20
2018-06-23T22:53:27.651Z,13.20
2018-06-23T22:55:57.144Z,13.20
2018-06-23T22:58:26.487Z,13.20
2018-06-23T23:00:55.921Z,13.30
2018-06-23T23:03:25.329Z,13.30
2018-06-23T23:05:54.719Z,13.30
2018-06-23T23:08:24.059Z,13.30
2018-06-23T23:10:53.517Z,13.30
2018-06-23T23:13:22.949Z,13.30
2018-06-23T23:15:52.342Z,13.30
2018-06-23T23:18:21.768Z,13.30
2018-06-23T23:20:51.082Z,13.30
2018-06-23T23:23:20.534Z,13.30
2018-06-23T23:25:50.948Z,13.30
2018-06-23T23:28:20.420Z,13.30
2018-06-23T23:30:49.768Z,13.30
2018-06-23T23:33:19.115Z,13.30
2018-06-23T23:35:48.415Z,13.20
2018-06-23T23:38:17.803Z,13.30
2018-06-23T23:40:49.390Z,13.20
2018-06-23T23:43:18.774Z,13.20
2018-06-23T23:45:48.181Z,13.10
2018-06-23T23:48:17.864Z,13.10
2018-06-23T23:50:47.257Z,13.10
2018-06-23T23:53:16.645Z,13.00
2018-06-23T23:55:46.011Z,13.00
2018-06-23T23:58:15.320Z,13.00
